createdAt,value
2022-10-07T05:00:11.516Z,10.00
2022-10-07T05:05:18.263Z,10.00
2022-10-07T05:10:22.889Z,9.90
2022-10-07T05:15:26.444Z,9.90
2022-10-07T05:20:31.636Z,9.90
2022-10-07T05:25:35.849Z,9.80
2022-10-07T05:30:39.960Z,9.70
2022-10-07T05:35:48.678Z,9.70
2022-10-07T05:40:59.628Z,9.70
2022-10-07T05:46:05.776Z,9.60
2022-10-07T05:51:11.620Z,9.60
2022-10-07T05:56:17.907Z,9.60
2022-10-07T06:01:23.529Z,9.70
2022-10-07T06:06:30.176Z,9.70
2022-10-07T06:12:03.438Z,9.70
2022-10-07T06:17:07.824Z,9.70
2022-10-07T06:22:13.255Z,9.70
2022-10-07T06:27:17.353Z,9.70
2022-10-07T06:32:21.484Z,9.70
2022-10-07T06:37:26.854Z,9.60
2022-10-07T06:42:30.564Z,9.60
2022-10-07T06:47:34.654Z,9.70
2022-10-07T06:52:43.326Z,9.70
2022-10-07T06:57:47.483Z,9.70
2022-10-07T07:02:52.252Z,9.80
2022-10-07T07:07:58.848Z,9.90
2022-10-07T07:13:02.903Z,9.90
2022-10-07T07:18:08.349Z,10.00
2022-10-07T07:23:14.749Z,10.10
2022-10-07T07:28:18.860Z,10.20
2022-10-07T07:33:22.754Z,10.20
2022-10-07T07:38:27.970Z,10.30
2022-10-07T07:43:31.912Z,10.50
2022-10-07T07:48:36.223Z,10.60
2022-10-07T07:53:41.342Z,10.70
2022-10-07T07:58:45.133Z,10.90
2022-10-07T08:03:50.254Z,11.10
2022-10-07T08:08:56.176Z,11.20
2022-10-07T08:14:00.204Z,11.40
2022-10-07T08:19:04.936Z,11.70
2022-10-07T08:24:12.751Z,11.90
2022-10-07T08:29:16.989Z,12.10
2022-10-07T08:34:22.074Z,12.30
2022-10-07T08:39:29.542Z,12.60
2022-10-07T08:44:37.683Z,12.90
2022-10-07T08:49:57.601Z,13.10
2022-10-07T08:55:04.182Z,13.50
2022-10-07T09:00:10.606Z,14.00
2022-10-07T09:05:22.142Z,14.60
2022-10-07T09:10:34.048Z,15.60
2022-10-07T09:15:43.133Z,16.50
2022-10-07T09:20:53.645Z,17.40
2022-10-07T09:25:58.960Z,18.30
2022-10-07T09:31:03.995Z,18.90
2022-10-07T09:36:10.064Z,19.40
2022-10-07T09:41:20.240Z,20.00
2022-10-07T09:46:53.433Z,20.90
2022-10-07T09:52:00.765Z,21.30
2022-10-07T09:57:07.522Z,21.80
2022-10-07T10:02:23.263Z,22.40
2022-10-07T10:07:29.092Z,23.30
2022-10-07T10:12:40.713Z,23.90
2022-10-07T10:17:46.610Z,24.40
2022-10-07T10:22:50.547Z,24.40
2022-10-07T10:28:03.792Z,24.90
2022-10-07T10:33:26.129Z,25.40
2022-10-07T10:38:37.473Z,25.50
2022-10-07T10:44:01.654Z,26.10
2022-10-07T10:49:17.249Z,26.20
2022-10-07T10:54:30.220Z,25.90
2022-10-07T10:59:57.057Z,25.80
2022-10-07T11:05:05.263Z,25.90
2022-10-07T11:10:20.654Z,26.10
2022-10-07T11:15:29.547Z,26.20
2022-10-07T11:20:40.987Z,27.10
2022-10-07T11:25:52.025Z,27.20
2022-10-07T11:31:03.378Z,27.50
2022-10-07T11:36:14.898Z,27.30
2022-10-07T11:41:25.877Z,27.20
2022-10-07T11:46:35.048Z,27.80
2022-10-07T11:51:42.324Z,27.90
2022-10-07T11:56:49.705Z,27.70
2022-10-07T12:01:55.286Z,27.80
2022-10-07T12:07:37.050Z,28.00
2022-10-07T12:12:52.386Z,27.70
2022-10-07T12:18:18.416Z,27.50
2022-10-07T12:24:11.149Z,27.70
2022-10-07T12:29:45.540Z,27.50
2022-10-07T12:34:50.634Z,27.70
2022-10-07T12:39:54.343Z,28.00
2022-10-07T12:45:00.329Z,27.70
2022-10-07T12:50:12.400Z,27.90
2022-10-07T12:55:20.358Z,28.20
2022-10-07T13:00:25.520Z,27.70
2022-10-07T13:06:00.515Z,27.80
2022-10-07T13:11:47.715Z,28.30
2022-10-07T13:16:58.485Z,28.10
2022-10-07T13:22:12.678Z,27.90
2022-10-07T13:27:19.410Z,27.40
2022-10-07T13:32:25.405Z,26.70
2022-10-07T13:37:33.116Z,26.50
2022-10-07T13:42:36.754Z,27.00
2022-10-07T13:47:42.457Z,27.20
2022-10-07T13:52:49.505Z,27.30
2022-10-07T13:57:53.740Z,27.30
2022-10-07T14:02:57.249Z,27.20
2022-10-07T14:08:15.123Z,27.00
2022-10-07T14:13:18.936Z,27.00
2022-10-07T14:18:23.593Z,27.20
2022-10-07T14:23:31.486Z,27.10
2022-10-07T14:28:36.937Z,27.00
2022-10-07T14:34:05.868Z,27.00
2022-10-07T14:39:24.981Z,26.90
2022-10-07T14:44:30.162Z,26.50
2022-10-07T14:49:34.235Z,26.20
2022-10-07T14:54:39.749Z,25.80
2022-10-07T14:59:43.431Z,25.10
2022-10-07T15:04:47.386Z,24.40
2022-10-07T15:09:52.405Z,23.90
2022-10-07T15:14:56.118Z,23.40
2022-10-07T15:19:59.803Z,23.10
2022-10-07T15:25:05.286Z,22.80
2022-10-07T15:30:10.037Z,22.70
2022-10-07T15:35:13.712Z,22.60
2022-10-07T15:40:18.811Z,22.50
2022-10-07T15:45:22.513Z,22.30
2022-10-07T15:50:26.249Z,22.20
2022-10-07T15:55:33.199Z,22.00
2022-10-07T16:00:36.856Z,21.80
2022-10-07T16:05:40.523Z,21.80
2022-10-07T16:10:45.514Z,21.50
2022-10-07T16:16:02.935Z,21.30
2022-10-07T16:21:07.146Z,21.10
2022-10-07T16:26:14.473Z,21.00
2022-10-07T16:31:18.773Z,20.90
2022-10-07T16:36:23.722Z,20.70
2022-10-07T16:41:28.672Z,20.60
2022-10-07T16:46:33.304Z,20.60
2022-10-07T16:51:38.255Z,20.60
2022-10-07T16:56:46.449Z,20.50
2022-10-07T17:01:50.611Z,20.40
2022-10-07T17:06:54.783Z,20.30
2022-10-07T17:11:59.818Z,20.20
2022-10-07T17:17:05.149Z,20.10
2022-10-07T17:22:09.616Z,20.00
2022-10-07T17:27:14.657Z,19.90
2022-10-07T17:32:18.276Z,19.80
2022-10-07T17:37:22.074Z,19.70
2022-10-07T17:42:27.069Z,19.50
2022-10-07T17:47:33.943Z,19.40
2022-10-07T17:52:37.824Z,19.20
2022-10-07T17:57:42.825Z,19.00
2022-10-07T18:02:50.395Z,18.80
2022-10-07T18:07:54.014Z,18.60
2022-10-07T18:13:16.670Z,18.50
2022-10-07T18:18:20.340Z,18.20
2022-10-07T18:23:25.642Z,18.10
2022-10-07T18:28:32.586Z,17.30
2022-10-07T18:33:38.661Z,17.80
2022-10-07T18:38:44.125Z,17.70
2022-10-07T18:43:49.496Z,17.50
2022-10-07T18:48:54.189Z,17.40
2022-10-07T18:53:57.808Z,17.30
2022-10-07T18:59:02.807Z,17.20
2022-10-07T19:04:08.272Z,17.10
2022-10-07T19:09:15.447Z,17.00
2022-10-07T19:14:20.511Z,16.80
2022-10-07T19:19:25.489Z,16.70
2022-10-07T19:24:42.975Z,16.50
2022-10-07T19:29:48.822Z,16.50
2022-10-07T19:34:52.468Z,16.40
2022-10-07T19:39:56.097Z,16.30
2022-10-07T19:45:01.043Z,16.20
2022-10-07T19:50:04.907Z,16.10
2022-10-07T19:55:09.577Z,15.90
2022-10-07T20:00:14.761Z,15.80
2022-10-07T20:05:18.555Z,15.70
2022-10-07T20:10:22.309Z,15.70
2022-10-07T20:15:27.294Z,15.60
2022-10-07T20:20:30.892Z,15.50
2022-10-07T20:25:34.532Z,15.50
2022-10-07T20:30:40.665Z,15.40
2022-10-07T20:35:44.271Z,15.40
2022-10-07T20:41:10.706Z,15.30
2022-10-07T20:46:15.890Z,15.30
2022-10-07T20:51:21.022Z,15.10
2022-10-07T20:56:24.682Z,15.00
2022-10-07T21:01:29.679Z,15.00
2022-10-07T21:06:33.425Z,14.90
2022-10-07T21:11:37.509Z,14.80
2022-10-07T21:16:43.009Z,14.70
2022-10-07T21:21:46.634Z,14.70
2022-10-07T21:26:50.287Z,14.70
2022-10-07T21:31:55.321Z,14.70
2022-10-07T21:36:59.140Z,14.60
2022-10-07T21:42:02.808Z,14.60
2022-10-07T21:47:07.754Z,14.50
2022-10-07T21:52:11.270Z,14.50
2022-10-07T21:57:14.864Z,14.50
2022-10-07T22:02:19.980Z,14.50
2022-10-07T22:07:44.666Z,14.40
2022-10-07T22:12:48.753Z,14.40
2022-10-07T22:17:55.750Z,14.40
2022-10-07T22:23:00.137Z,14.40
2022-10-07T22:28:03.890Z,14.40
